createdAt,value
2023-06-30T00:00:13.747Z,101597.25
2023-06-30T00:02:42.206Z,101588.50
2023-06-30T00:05:09.167Z,101595.06
2023-06-30T00:07:35.927Z,101601.38
2023-06-30T00:10:02.720Z,101590.81
2023-06-30T00:12:29.361Z,101592.75
2023-06-30T00:14:55.926Z,101589.31
2023-06-30T00:17:23.617Z,101595.50
2023-06-30T00:19:52.074Z,101585.94
2023-06-30T00:22:22.682Z,101580.69
2023-06-30T00:24:56.268Z,101579.09
2023-06-30T00:27:25.925Z,101583.66
2023-06-30T00:29:52.659Z,101574.88
2023-06-30T00:32:19.257Z,101573.28
2023-06-30T00:34:45.937Z,101568.19
2023-06-30T00:37:12.518Z,101570.97
2023-06-30T00:39:39.088Z,101569.38
2023-06-30T00:42:05.996Z,101568.56
2023-06-30T00:44:32.553Z,101568.56
2023-06-30T00:47:02.314Z,101563.34
2023-06-30T00:49:29.986Z,101560.69
2023-06-30T00:51:56.745Z,101570.38
2023-06-30T00:54:23.923Z,101564.25
2023-06-30T00:56:50.468Z,101563.41
2023-06-30T00:59:18.152Z,101565.22
2023-06-30T01:01:50.308Z,101565.28
2023-06-30T01:04:26.207Z,101568.03
2023-06-30T01:07:02.500Z,101563.78
2023-06-30T01:09:34.178Z,101569.28
2023-06-30T01:12:00.892Z,101556.09
2023-06-30T01:14:28.696Z,101562.31
2023-06-30T01:16:56.129Z,101569.47
2023-06-30T01:19:46.010Z,101568.63
2023-06-30T01:22:20.666Z,101574.91
2023-06-30T01:24:48.955Z,101569.69
2023-06-30T01:27:15.525Z,101570.84
2023-06-30T01:29:43.547Z,101566.59
2023-06-30T01:32:10.880Z,101562.34
2023-06-30T01:34:37.570Z,101566.13
2023-06-30T01:37:04.490Z,101572.25
2023-06-30T01:39:31.488Z,101566.91
2023-06-30T01:41:58.053Z,101572.19
2023-06-30T01:44:24.728Z,101567.03
2023-06-30T01:46:51.621Z,101553.91
2023-06-30T01:49:18.927Z,101552.09
2023-06-30T01:51:45.450Z,101550.47
2023-06-30T01:54:12.020Z,101548.75
2023-06-30T01:56:38.891Z,101546.09
2023-06-30T01:59:05.405Z,101541.78
2023-06-30T02:01:32.027Z,101540.03
2023-06-30T02:03:58.789Z,101538.38
2023-06-30T02:06:25.477Z,101538.44
2023-06-30T02:08:52.129Z,101536.66
2023-06-30T02:11:18.874Z,101544.69
2023-06-30T02:13:45.406Z,101538.56
2023-06-30T02:16:12.000Z,101542.09
2023-06-30T02:18:40.640Z,101543.94
2023-06-30T02:21:07.253Z,101545.94
2023-06-30T02:23:34.060Z,101546.97
2023-06-30T02:26:00.584Z,101541.88
2023-06-30T02:28:27.319Z,101548.09
2023-06-30T02:30:55.100Z,101545.50
2023-06-30T02:33:21.795Z,101545.41
2023-06-30T02:35:48.694Z,101541.94
2023-06-30T02:38:15.517Z,101541.94
2023-06-30T02:40:42.109Z,101541.22
2023-06-30T02:43:09.511Z,101534.31
2023-06-30T02:45:36.092Z,101546.66
2023-06-30T02:48:03.705Z,101541.50
2023-06-30T02:50:31.470Z,101540.78
2023-06-30T02:53:01.407Z,101537.31
2023-06-30T02:55:28.394Z,101543.47
2023-06-30T02:57:55.045Z,101542.53
2023-06-30T03:00:21.659Z,101539.03
2023-06-30T03:02:48.778Z,101540.88
2023-06-30T03:05:15.665Z,101532.91
2023-06-30T03:07:42.209Z,101536.50
2023-06-30T03:10:09.369Z,101537.31
2023-06-30T03:12:36.002Z,101538.22
2023-06-30T03:15:02.647Z,101540.88
2023-06-30T03:17:29.279Z,101539.94
2023-06-30T03:19:55.897Z,101532.88
2023-06-30T03:22:23.421Z,101536.44
2023-06-30T03:24:50.113Z,101546.13
2023-06-30T03:27:16.703Z,101541.63
2023-06-30T03:29:43.381Z,101537.31
2023-06-30T03:32:09.982Z,101542.59
2023-06-30T03:34:36.514Z,101536.50
2023-06-30T03:37:03.343Z,101535.53
2023-06-30T03:39:29.983Z,101540.78
2023-06-30T03:41:56.701Z,101540.72
2023-06-30T03:44:23.345Z,101538.00
2023-06-30T03:46:50.016Z,101535.34
2023-06-30T03:49:16.557Z,101534.38
2023-06-30T03:51:43.146Z,101525.41
2023-06-30T03:54:10.101Z,101520.94
2023-06-30T03:56:36.772Z,101522.56
2023-06-30T03:59:03.373Z,101524.22
2023-06-30T04:01:29.915Z,101528.28
2023-06-30T04:03:56.544Z,101521.06
2023-06-30T04:06:23.255Z,101527.91
2023-06-30T04:08:50.747Z,101531.19
2023-06-30T04:11:17.296Z,101523.78
2023-06-30T04:13:43.812Z,101523.59
2023-06-30T04:16:10.710Z,101522.34
2023-06-30T04:18:37.756Z,101522.81
2023-06-30T04:21:04.363Z,101511.91
2023-06-30T04:23:30.941Z,101514.16
2023-06-30T04:25:57.989Z,101520.75
2023-06-30T04:28:24.572Z,101508.88
2023-06-30T04:30:51.270Z,101521.75
2023-06-30T04:33:17.833Z,101517.88
2023-06-30T04:35:45.344Z,101515.53
2023-06-30T04:38:12.139Z,101519.47
2023-06-30T04:40:38.765Z,101520.00
2023-06-30T04:43:12.405Z,101518.63
2023-06-30T04:45:40.560Z,101522.53
2023-06-30T04:48:07.370Z,101528.28
2023-06-30T04:50:34.146Z,101526.91
2023-06-30T04:53:00.719Z,101522.59
2023-06-30T04:55:27.212Z,101522.06
2023-06-30T04:57:57.374Z,101522.41
2023-06-30T05:00:24.373Z,101525.38
2023-06-30T05:02:51.015Z,101526.69
2023-06-30T05:05:17.725Z,101525.31
2023-06-30T05:07:44.335Z,101522.16
2023-06-30T05:10:11.075Z,101512.75
2023-06-30T05:12:37.620Z,101514.03
2023-06-30T05:15:04.647Z,101519.56
2023-06-30T05:17:31.325Z,101525.28
2023-06-30T05:19:58.018Z,101514.13
2023-06-30T05:22:24.566Z,101508.16
2023-06-30T05:24:51.113Z,101512.97
2023-06-30T05:27:19.440Z,101518.66
2023-06-30T05:29:46.060Z,101513.34
2023-06-30T05:32:12.605Z,101503.16
2023-06-30T05:34:39.151Z,101503.59
2023-06-30T05:37:06.104Z,101509.44
2023-06-30T05:39:32.643Z,101516.88
2023-06-30T05:41:59.206Z,101508.19
2023-06-30T05:44:25.857Z,101511.28
2023-06-30T05:46:52.460Z,101511.69
2023-06-30T05:49:19.148Z,101519.06
2023-06-30T05:51:45.667Z,101521.38
2023-06-30T05:54:12.194Z,101511.03
2023-06-30T05:56:38.837Z,101509.78
2023-06-30T05:59:05.906Z,101509.03
2023-06-30T06:01:32.520Z,101512.22
2023-06-30T06:03:59.228Z,101510.06
2023-06-30T06:06:26.017Z,101511.09
2023-06-30T06:08:52.548Z,101509.19
2023-06-30T06:11:19.067Z,101505.13
2023-06-30T06:13:45.691Z,101506.16
2023-06-30T06:16:12.278Z,101509.22
2023-06-30T06:18:39.083Z,101500.91
2023-06-30T06:21:05.994Z,101510.81
2023-06-30T06:23:32.660Z,101510.22
2023-06-30T06:25:59.443Z,101511.44
2023-06-30T06:28:25.981Z,101509.84
2023-06-30T06:30:52.854Z,101512.94
2023-06-30T06:33:19.475Z,101514.09
2023-06-30T06:35:46.363Z,101514.34
2023-06-30T06:38:17.269Z,101510.13
2023-06-30T06:40:47.045Z,101506.06
2023-06-30T06:43:13.891Z,101504.94
2023-06-30T06:45:42.820Z,101497.59
2023-06-30T06:48:22.136Z,101501.66
2023-06-30T06:51:03.211Z,101499.34
2023-06-30T06:53:31.811Z,101501.47
2023-06-30T06:55:58.682Z,101496.13
2023-06-30T06:58:26.921Z,101497.75
2023-06-30T07:00:53.856Z,101499.38
2023-06-30T07:03:20.836Z,101493.94
2023-06-30T07:05:48.029Z,101495.44
2023-06-30T07:08:16.431Z,101494.47
2023-06-30T07:10:43.569Z,101490.13
2023-06-30T07:13:10.531Z,101492.91
2023-06-30T07:15:37.611Z,101497.19
2023-06-30T07:18:04.538Z,101493.13
2023-06-30T07:20:31.238Z,101491.50
2023-06-30T07:22:58.044Z,101491.06
2023-06-30T07:25:25.981Z,101496.38
2023-06-30T07:27:58.681Z,101485.59
2023-06-30T07:30:26.542Z,101486.34
2023-06-30T07:32:53.342Z,101489.84
2023-06-30T07:35:20.079Z,101494.31
2023-06-30T07:37:47.607Z,101486.03
2023-06-30T07:40:16.973Z,101494.84
2023-06-30T07:42:47.250Z,101490.56
2023-06-30T07:45:15.823Z,101488.06
2023-06-30T07:47:46.987Z,101486.56
2023-06-30T07:50:15.244Z,101486.75
2023-06-30T07:52:47.460Z,101485.13
2023-06-30T07:55:17.269Z,101479.97
2023-06-30T07:57:45.221Z,101474.75
2023-06-30T08:00:13.430Z,101481.94
2023-06-30T08:02:40.143Z,101476.09
2023-06-30T08:05:07.242Z,101480.25
2023-06-30T08:07:47.996Z,101476.56
2023-06-30T08:10:16.512Z,101469.63
2023-06-30T08:12:43.045Z,101469.25
2023-06-30T08:15:09.915Z,101474.13
2023-06-30T08:17:53.966Z,101479.16
2023-06-30T08:20:23.076Z,101469.22
2023-06-30T08:22:49.669Z,101471.38
2023-06-30T08:25:17.304Z,101470.28
2023-06-30T08:27:44.112Z,101470.97
2023-06-30T08:30:10.886Z,101468.88
2023-06-30T08:32:37.612Z,101473.50
2023-06-30T08:35:04.457Z,101465.84
2023-06-30T08:37:31.054Z,101466.19
2023-06-30T08:39:57.663Z,101458.56
2023-06-30T08:42:27.632Z,101450.38
2023-06-30T08:44:54.983Z,101453.03
2023-06-30T08:47:26.513Z,101445.91
2023-06-30T08:49:54.043Z,101443.88
2023-06-30T08:52:20.698Z,101447.88
2023-06-30T08:54:47.255Z,101425.22
2023-06-30T08:57:16.667Z,101421.78
2023-06-30T08:59:43.994Z,101426.06
2023-06-30T09:02:12.623Z,101430.28
2023-06-30T09:04:43.575Z,101424.88
2023-06-30T09:07:19.325Z,101419.13
2023-06-30T09:09:49.663Z,101421.28
2023-06-30T09:12:16.480Z,101430.44
2023-06-30T09:14:46.105Z,101418.09
2023-06-30T09:17:12.999Z,101414.53
2023-06-30T09:19:39.955Z,101421.75
2023-06-30T09:22:51.501Z,101410.31
2023-06-30T09:24:53.373Z,101411.88
2023-06-30T09:27:19.977Z,101416.56
2023-06-30T09:29:54.210Z,101414.56
2023-06-30T09:32:26.484Z,101424.22
2023-06-30T09:34:56.161Z,101407.66
2023-06-30T09:37:22.795Z,101411.28
2023-06-30T09:39:52.808Z,101405.25
2023-06-30T09:42:22.111Z,101402.34
2023-06-30T09:44:50.927Z,101414.00
2023-06-30T09:47:19.356Z,101407.16
2023-06-30T09:49:46.346Z,101425.22
2023-06-30T09:52:24.509Z,101399.63
2023-06-30T09:54:51.123Z,101405.50
2023-06-30T09:57:17.769Z,101413.19
2023-06-30T09:59:47.277Z,101403.31
2023-06-30T10:02:16.153Z,101407.91
2023-06-30T10:04:44.493Z,101399.78
2023-06-30T10:07:14.600Z,101402.03
2023-06-30T10:09:41.914Z,101397.09
2023-06-30T10:12:09.942Z,101390.13
2023-06-30T10:14:37.324Z,101402.72
2023-06-30T10:17:07.010Z,101394.78
2023-06-30T10:19:34.230Z,101388.50
2023-06-30T10:22:00.998Z,101394.94
2023-06-30T10:24:28.384Z,101409.13
2023-06-30T10:26:56.198Z,101401.53
2023-06-30T10:29:23.528Z,101399.19
2023-06-30T10:31:50.423Z,101395.72
2023-06-30T10:34:18.339Z,101384.72
2023-06-30T10:36:45.569Z,101378.88
2023-06-30T10:39:12.501Z,101377.28
2023-06-30T10:41:58.949Z,101378.06
2023-06-30T10:44:38.109Z,101374.75
2023-06-30T10:47:05.230Z,101367.00
2023-06-30T10:49:42.274Z,101368.78
2023-06-30T10:52:10.781Z,101362.84
2023-06-30T10:54:43.700Z,101369.91
2023-06-30T10:57:11.557Z,101372.41
2023-06-30T10:59:45.649Z,101362.44
2023-06-30T11:02:18.406Z,101357.28
2023-06-30T11:04:46.830Z,101357.25
2023-06-30T11:07:25.169Z,101355.44
2023-06-30T11:09:51.737Z,101346.53
2023-06-30T11:12:29.021Z,101362.16
2023-06-30T11:14:59.927Z,101355.81
2023-06-30T11:17:58.460Z,101337.78
2023-06-30T11:20:27.961Z,101344.44
2023-06-30T11:23:06.511Z,101353.59
2023-06-30T11:25:34.807Z,101343.16
2023-06-30T11:28:03.411Z,101346.81
2023-06-30T11:30:35.626Z,101343.41
2023-06-30T11:33:02.307Z,101361.09
2023-06-30T11:35:30.364Z,101370.91
2023-06-30T11:37:56.933Z,101339.88
2023-06-30T11:40:23.812Z,101342.78
2023-06-30T11:42:53.022Z,101328.25
2023-06-30T11:45:28.126Z,101324.50
2023-06-30T11:47:55.652Z,101330.00
2023-06-30T11:50:22.922Z,101323.03
2023-06-30T11:52:49.910Z,101332.03
2023-06-30T11:55:17.314Z,101327.13
2023-06-30T11:57:48.025Z,101320.16
2023-06-30T12:00:18.175Z,101317.50
2023-06-30T12:02:51.694Z,101316.28
2023-06-30T12:05:24.662Z,101320.34
2023-06-30T12:07:55.240Z,101319.44
2023-06-30T12:10:34.136Z,101327.28
2023-06-30T12:13:00.723Z,101326.34
2023-06-30T12:15:30.672Z,101313.25
2023-06-30T12:17:57.281Z,101302.19
2023-06-30T12:20:36.155Z,101288.50
2023-06-30T12:23:05.083Z,101294.00
2023-06-30T12:25:34.653Z,101298.22
2023-06-30T12:28:05.439Z,101282.50
2023-06-30T12:30:32.471Z,101280.84
2023-06-30T12:33:00.580Z,101280.97
2023-06-30T12:35:38.654Z,101283.63
2023-06-30T12:38:10.334Z,101285.16
2023-06-30T12:40:36.951Z,101300.53
2023-06-30T12:43:03.751Z,101266.50
2023-06-30T12:45:30.534Z,101289.66
2023-06-30T12:47:57.471Z,101271.25
2023-06-30T12:50:24.082Z,101276.97
2023-06-30T12:52:50.809Z,101274.78
2023-06-30T12:55:21.674Z,101268.06
2023-06-30T12:57:48.581Z,101271.50
2023-06-30T13:00:16.201Z,101274.00
2023-06-30T13:02:42.741Z,101273.22
2023-06-30T13:05:09.523Z,101263.56
2023-06-30T13:07:36.398Z,101274.34
2023-06-30T13:10:04.210Z,101269.47
2023-06-30T13:12:30.932Z,101272.72
2023-06-30T13:14:58.232Z,101257.94
2023-06-30T13:17:25.430Z,101243.19
2023-06-30T13:19:52.655Z,101249.75
2023-06-30T13:22:19.386Z,101253.19
2023-06-30T13:24:47.282Z,101264.22
2023-06-30T13:27:13.911Z,101256.81
2023-06-30T13:29:50.844Z,101248.84
2023-06-30T13:32:17.662Z,101249.06
2023-06-30T13:34:46.007Z,101250.50
2023-06-30T13:37:12.669Z,101242.78
2023-06-30T13:39:39.826Z,101240.78
2023-06-30T13:42:07.292Z,101240.50
2023-06-30T13:44:34.973Z,101237.16
2023-06-30T13:47:01.953Z,101234.78
2023-06-30T13:49:28.902Z,101236.28
2023-06-30T13:51:55.539Z,101240.69
2023-06-30T13:54:25.857Z,101238.66
2023-06-30T13:56:53.435Z,101221.47
2023-06-30T13:59:19.989Z,101213.91
2023-06-30T14:01:46.784Z,101222.19
2023-06-30T14:04:13.754Z,101208.81
2023-06-30T14:06:40.643Z,101214.63
2023-06-30T14:09:11.026Z,101210.31
2023-06-30T14:11:38.887Z,101198.66
2023-06-30T14:14:06.311Z,101215.38
2023-06-30T14:16:36.355Z,101209.44
2023-06-30T14:19:03.525Z,101202.66
2023-06-30T14:21:31.977Z,101200.16
2023-06-30T14:23:59.283Z,101196.41
2023-06-30T14:26:26.178Z,101194.91
2023-06-30T14:28:53.656Z,101185.03
2023-06-30T14:31:20.445Z,101200.13
2023-06-30T14:33:47.132Z,101183.31
2023-06-30T14:36:13.680Z,101182.69
2023-06-30T14:38:40.245Z,101184.13
2023-06-30T14:41:06.807Z,101176.91
2023-06-30T14:43:33.520Z,101188.06
2023-06-30T14:46:00.111Z,101181.31
2023-06-30T14:48:26.668Z,101178.28
2023-06-30T14:50:53.282Z,101182.03
2023-06-30T14:53:19.957Z,101177.69
2023-06-30T14:55:46.694Z,101177.53
2023-06-30T14:58:13.387Z,101186.50
2023-06-30T15:00:40.121Z,101186.09
2023-06-30T15:03:07.387Z,101176.50
2023-06-30T15:05:34.092Z,101181.41
2023-06-30T15:08:00.776Z,101183.75
2023-06-30T15:10:27.693Z,101189.50
2023-06-30T15:12:54.324Z,101189.91
2023-06-30T15:15:21.004Z,101178.09
2023-06-30T15:17:47.649Z,101182.22
2023-06-30T15:20:14.299Z,101182.91
2023-06-30T15:22:40.874Z,101180.00
2023-06-30T15:25:07.839Z,101196.72
2023-06-30T15:27:35.728Z,101175.56
2023-06-30T15:30:04.496Z,101182.44
2023-06-30T15:32:31.131Z,101187.91
2023-06-30T15:34:57.701Z,101172.00
2023-06-30T15:37:24.397Z,101177.22
2023-06-30T15:39:51.074Z,101190.78
2023-06-30T15:42:17.685Z,101186.50
2023-06-30T15:44:44.334Z,101183.38
2023-06-30T15:47:10.863Z,101190.38
2023-06-30T15:49:37.523Z,101192.91
2023-06-30T15:52:04.555Z,101188.06
2023-06-30T15:54:31.241Z,101182.81
2023-06-30T15:56:57.871Z,101187.31
2023-06-30T15:59:24.463Z,101181.81
2023-06-30T16:01:51.033Z,101174.97
2023-06-30T16:04:17.655Z,101183.91
2023-06-30T16:06:44.277Z,101173.03
2023-06-30T16:09:10.841Z,101165.09
2023-06-30T16:11:37.667Z,101159.44
2023-06-30T16:14:04.180Z,101168.25
2023-06-30T16:16:30.783Z,101149.81
2023-06-30T16:18:57.380Z,101149.41
2023-06-30T16:21:23.959Z,101138.75
2023-06-30T16:23:51.690Z,101149.94
2023-06-30T16:26:20.859Z,101147.72
2023-06-30T16:28:47.489Z,101136.47
2023-06-30T16:31:14.097Z,101144.16
2023-06-30T16:33:40.815Z,101132.47
2023-06-30T16:36:08.836Z,101121.41
2023-06-30T16:38:35.370Z,101127.09
2023-06-30T16:41:01.929Z,101132.50
2023-06-30T16:43:28.586Z,101129.66
2023-06-30T16:45:56.049Z,101123.06
2023-06-30T16:48:22.727Z,101105.22
2023-06-30T16:50:49.325Z,101102.09
2023-06-30T16:53:15.927Z,101104.97
2023-06-30T16:55:42.501Z,101109.88
2023-06-30T16:58:09.124Z,101106.72
2023-06-30T17:00:35.724Z,101099.59
2023-06-30T17:03:02.375Z,101094.16
2023-06-30T17:05:29.010Z,101097.31
2023-06-30T17:07:55.624Z,101103.69
2023-06-30T17:10:22.618Z,101081.38
2023-06-30T17:12:49.167Z,101090.78
2023-06-30T17:15:15.806Z,101073.47
2023-06-30T17:17:42.476Z,101075.72
2023-06-30T17:20:09.348Z,101056.78
2023-06-30T17:22:35.881Z,101074.94
2023-06-30T17:25:05.217Z,101075.78
2023-06-30T17:27:32.680Z,101082.41
2023-06-30T17:29:59.421Z,101060.34
2023-06-30T17:32:26.061Z,101066.38
2023-06-30T17:34:52.644Z,101067.06
2023-06-30T17:37:19.219Z,101071.44
2023-06-30T17:39:45.817Z,101072.41
2023-06-30T17:42:12.544Z,101077.25
2023-06-30T17:44:39.202Z,101072.94
2023-06-30T17:47:06.147Z,101076.59
2023-06-30T17:49:34.725Z,101065.13
2023-06-30T17:52:01.776Z,101071.13
2023-06-30T17:54:31.875Z,101064.78
2023-06-30T17:56:58.992Z,101062.50
2023-06-30T17:59:27.719Z,101063.34
2023-06-30T18:01:54.421Z,101074.28
2023-06-30T18:04:21.202Z,101065.78
2023-06-30T18:07:08.643Z,101060.66
2023-06-30T18:09:36.759Z,101063.34
2023-06-30T18:12:04.163Z,101068.69
2023-06-30T18:14:31.757Z,101049.06
2023-06-30T18:16:59.399Z,101053.47
2023-06-30T18:19:26.393Z,101049.31
2023-06-30T18:21:54.064Z,101049.19
2023-06-30T18:24:20.869Z,101045.16
2023-06-30T18:26:48.973Z,101039.09
2023-06-30T18:29:22.506Z,101043.56
2023-06-30T18:31:50.093Z,101047.84
2023-06-30T18:34:16.761Z,101043.13
2023-06-30T18:36:43.538Z,101042.63
2023-06-30T18:39:10.421Z,101051.03
2023-06-30T18:41:37.069Z,101057.03
2023-06-30T18:44:04.133Z,101050.19
2023-06-30T18:46:30.876Z,101046.66
2023-06-30T18:48:57.906Z,101040.94
2023-06-30T18:51:28.586Z,101030.56
2023-06-30T18:53:55.683Z,101038.72
2023-06-30T18:56:24.132Z,101024.88
2023-06-30T18:58:55.306Z,101028.75
2023-06-30T19:01:21.983Z,101040.81
2023-06-30T19:03:49.667Z,101023.41
2023-06-30T19:06:16.624Z,101020.72
2023-06-30T19:08:43.313Z,101030.56
2023-06-30T19:11:10.107Z,101029.47
2023-06-30T19:13:36.728Z,101018.38
2023-06-30T19:16:03.436Z,101021.69
2023-06-30T19:18:29.984Z,101023.75
2023-06-30T19:20:56.757Z,101014.25
2023-06-30T19:23:23.327Z,101022.41
2023-06-30T19:25:52.722Z,101008.53
2023-06-30T19:28:20.658Z,101002.09
2023-06-30T19:30:47.585Z,101006.09
2023-06-30T19:33:14.188Z,101014.00
2023-06-30T19:35:40.822Z,101010.34
2023-06-30T19:38:07.451Z,100991.38
2023-06-30T19:40:34.035Z,100999.28
2023-06-30T19:43:00.573Z,101004.84
2023-06-30T19:45:27.138Z,101003.66
2023-06-30T19:47:53.770Z,100988.44
2023-06-30T19:50:23.965Z,100987.34
2023-06-30T19:52:51.613Z,100979.53
2023-06-30T19:55:19.783Z,100986.59
2023-06-30T19:57:46.758Z,100971.63
2023-06-30T20:00:13.583Z,100990.38
2023-06-30T20:02:42.816Z,100975.16
2023-06-30T20:05:09.800Z,100990.75
2023-06-30T20:07:36.346Z,100974.44
2023-06-30T20:10:02.951Z,100970.53
2023-06-30T20:12:29.555Z,100964.81
2023-06-30T20:14:57.299Z,100961.16
2023-06-30T20:17:24.062Z,100958.00
2023-06-30T20:19:50.616Z,100960.78
2023-06-30T20:22:17.231Z,100958.00
2023-06-30T20:24:43.884Z,100956.75
2023-06-30T20:27:10.586Z,100947.16
2023-06-30T20:29:37.168Z,100950.06
2023-06-30T20:32:04.003Z,100947.38
2023-06-30T20:34:31.194Z,100947.28
2023-06-30T20:36:57.776Z,100932.91
2023-06-30T20:39:24.462Z,100922.19
2023-06-30T20:41:50.994Z,100934.13
2023-06-30T20:44:17.612Z,100929.50
2023-06-30T20:46:44.219Z,100929.13
2023-06-30T20:49:10.775Z,100926.72
2023-06-30T20:51:37.297Z,100910.38
2023-06-30T20:54:03.936Z,100915.63
2023-06-30T20:56:31.048Z,100918.44
2023-06-30T20:58:57.582Z,100900.44
2023-06-30T21:01:24.223Z,100907.72
2023-06-30T21:03:53.680Z,100919.75
2023-06-30T21:06:20.537Z,100905.41
2023-06-30T21:08:47.173Z,100908.69
2023-06-30T21:11:13.819Z,100912.69
2023-06-30T21:13:40.544Z,100896.41
2023-06-30T21:16:08.171Z,100889.59
2023-06-30T21:18:34.858Z,100884.38
2023-06-30T21:21:01.459Z,100892.28
2023-06-30T21:23:27.995Z,100883.25
2023-06-30T21:25:54.530Z,100877.41
2023-06-30T21:28:21.168Z,100878.13
2023-06-30T21:30:47.905Z,100882.91
2023-06-30T21:33:14.910Z,100870.56
2023-06-30T21:35:41.569Z,100864.28
2023-06-30T21:38:08.158Z,100853.44
2023-06-30T21:40:34.717Z,100869.38
2023-06-30T21:43:01.272Z,100851.81
2023-06-30T21:45:27.814Z,100856.25
2023-06-30T21:47:54.353Z,100852.69
2023-06-30T21:50:20.943Z,100847.22
2023-06-30T21:52:47.454Z,100846.47
2023-06-30T21:55:14.260Z,100832.16
2023-06-30T21:57:40.835Z,100846.47
2023-06-30T22:00:08.888Z,100839.41
2023-06-30T22:02:35.594Z,100829.56
2023-06-30T22:05:02.478Z,100830.31
2023-06-30T22:07:31.077Z,100833.59
2023-06-30T22:09:57.708Z,100827.63
2023-06-30T22:12:24.263Z,100816.94
2023-06-30T22:14:50.879Z,100809.00
2023-06-30T22:17:17.421Z,100804.50
2023-06-30T22:19:43.956Z,100808.50
2023-06-30T22:22:10.514Z,100819.47
2023-06-30T22:24:37.633Z,100814.97
2023-06-30T22:27:04.600Z,100802.31
2023-06-30T22:29:31.263Z,100813.38
2023-06-30T22:31:57.913Z,100803.28
2023-06-30T22:34:24.975Z,100803.41
2023-06-30T22:36:51.510Z,100792.81
2023-06-30T22:39:18.035Z,100787.34
2023-06-30T22:41:44.596Z,100791.09
2023-06-30T22:44:11.279Z,100788.44
2023-06-30T22:46:37.901Z,100793.31
2023-06-30T22:49:05.821Z,100784.41
2023-06-30T22:51:32.465Z,100782.69
2023-06-30T22:53:59.018Z,100786.94
2023-06-30T22:56:25.607Z,100785.22
2023-06-30T22:58:52.310Z,100787.78
2023-06-30T23:01:19.020Z,100787.06
2023-06-30T23:03:45.646Z,100798.31
2023-06-30T23:06:12.367Z,100779.66
2023-06-30T23:08:38.930Z,100791.63
2023-06-30T23:11:05.442Z,100777.84
2023-06-30T23:13:32.088Z,100777.25
2023-06-30T23:16:02.439Z,100768.38
2023-06-30T23:18:38.873Z,100768.91
2023-06-30T23:21:10.691Z,100759.59
2023-06-30T23:23:41.588Z,100753.31
2023-06-30T23:26:13.855Z,100733.66
2023-06-30T23:28:44.476Z,100736.22
2023-06-30T23:31:11.163Z,100727.03
2023-06-30T23:33:38.527Z,100732.13
2023-06-30T23:36:05.251Z,100733.50
2023-06-30T23:38:31.832Z,100730.66
2023-06-30T23:40:58.442Z,100723.16
2023-06-30T23:43:24.996Z,100721.88
2023-06-30T23:45:51.812Z,100720.06
2023-06-30T23:48:18.337Z,100726.78
2023-06-30T23:50:45.148Z,100709.66
2023-06-30T23:53:12.081Z,100715.63
2023-06-30T23:55:38.640Z,100737.09
2023-06-30T23:58:05.217Z,100738.81
